createdAt,value
2022-12-01T00:01:57.741Z,55.42
2022-12-01T00:04:24.132Z,55.37
2022-12-01T00:06:50.436Z,55.52
2022-12-01T00:09:19.924Z,55.30
2022-12-01T00:11:46.760Z,55.07
2022-12-01T00:14:13.107Z,55.24
2022-12-01T00:16:39.480Z,55.10
2022-12-01T00:19:05.915Z,54.91
2022-12-01T00:21:32.264Z,54.86
2022-12-01T00:23:58.576Z,54.88
2022-12-01T00:26:24.904Z,55.07
2022-12-01T00:28:51.221Z,54.71
2022-12-01T00:31:17.658Z,54.76
2022-12-01T00:33:43.938Z,54.61
2022-12-01T00:36:10.412Z,54.60
2022-12-01T00:38:37.045Z,54.17
2022-12-01T00:41:03.363Z,54.84
2022-12-01T00:43:29.673Z,54.65
2022-12-01T00:45:56.086Z,54.96
2022-12-01T00:48:22.524Z,54.84
2022-12-01T00:50:49.188Z,54.94
2022-12-01T00:53:15.545Z,54.80
2022-12-01T00:55:41.887Z,54.54
2022-12-01T00:58:08.124Z,54.77
2022-12-01T01:00:34.523Z,54.60
2022-12-01T01:03:00.948Z,54.57
2022-12-01T01:05:27.503Z,54.77
2022-12-01T01:07:53.909Z,54.65
2022-12-01T01:10:20.272Z,55.03
2022-12-01T01:12:46.675Z,54.65
2022-12-01T01:15:13.260Z,54.84
2022-12-01T01:17:39.554Z,54.65
2022-12-01T01:20:05.871Z,54.93
2022-12-01T01:22:32.141Z,54.78
2022-12-01T01:24:58.439Z,54.94
2022-12-01T01:27:25.003Z,55.04
2022-12-01T01:29:51.305Z,55.12
2022-12-01T01:32:17.635Z,55.10
2022-12-01T01:34:44.117Z,54.80
2022-12-01T01:37:10.497Z,55.13
2022-12-01T01:39:37.145Z,54.82
2022-12-01T01:42:03.519Z,55.15
2022-12-01T01:44:29.916Z,54.96
2022-12-01T01:46:56.257Z,55.22
2022-12-01T01:49:22.544Z,54.93
2022-12-01T01:51:49.181Z,55.25
2022-12-01T01:54:15.555Z,55.43
2022-12-01T01:56:41.896Z,55.34
2022-12-01T01:59:08.214Z,55.14
2022-12-01T02:01:34.682Z,55.31
2022-12-01T02:04:05.928Z,55.44
2022-12-01T02:06:32.898Z,55.29
2022-12-01T02:08:59.695Z,55.03
2022-12-01T02:11:27.832Z,55.44
2022-12-01T02:13:54.736Z,55.05
2022-12-01T02:16:21.218Z,55.28
2022-12-01T02:18:47.675Z,55.20
2022-12-01T02:21:14.377Z,55.34
2022-12-01T02:23:41.011Z,55.45
2022-12-01T02:26:07.358Z,55.27
2022-12-01T02:28:33.739Z,55.09
2022-12-01T02:31:00.382Z,55.16
2022-12-01T02:33:26.804Z,55.22
2022-12-01T02:35:53.257Z,55.14
2022-12-01T02:38:19.656Z,55.14
2022-12-01T02:40:46.096Z,54.86
2022-12-01T02:43:12.532Z,54.87
2022-12-01T02:45:38.834Z,54.74
2022-12-01T02:48:05.160Z,55.11
2022-12-01T02:50:31.486Z,54.99
2022-12-01T02:52:57.788Z,55.20
2022-12-01T02:55:24.345Z,55.18
2022-12-01T02:57:50.772Z,55.13
2022-12-01T03:00:17.036Z,55.10
2022-12-01T03:02:43.541Z,55.10
2022-12-01T03:05:10.096Z,54.90
2022-12-01T03:07:36.570Z,55.19
2022-12-01T03:10:02.903Z,55.14
2022-12-01T03:12:29.235Z,55.25
2022-12-01T03:14:55.559Z,55.22
2022-12-01T03:17:21.968Z,55.21
2022-12-01T03:19:48.560Z,55.30
2022-12-01T03:22:14.991Z,55.07
2022-12-01T03:24:41.321Z,55.11
2022-12-01T03:27:07.853Z,55.10
2022-12-01T03:29:34.167Z,55.16
2022-12-01T03:32:00.470Z,55.36
2022-12-01T03:34:26.813Z,55.29
2022-12-01T03:36:53.249Z,55.12
2022-12-01T03:39:19.669Z,55.46
2022-12-01T03:41:46.213Z,55.51
2022-12-01T03:44:12.590Z,55.63
2022-12-01T03:46:39.202Z,55.36
2022-12-01T03:49:05.646Z,55.03
2022-12-01T03:51:32.004Z,55.40
2022-12-01T03:53:58.459Z,55.25
2022-12-01T03:56:24.766Z,55.23
2022-12-01T03:58:51.096Z,55.15
2022-12-01T04:01:17.465Z,55.15
2022-12-01T04:03:43.849Z,54.89
2022-12-01T04:06:10.087Z,55.19
2022-12-01T04:08:36.504Z,55.07
2022-12-01T04:11:02.879Z,55.04
2022-12-01T04:13:29.317Z,55.19
2022-12-01T04:15:55.753Z,55.38
2022-12-01T04:18:22.125Z,55.28
2022-12-01T04:20:48.664Z,55.24
2022-12-01T04:23:15.117Z,55.30
2022-12-01T04:25:41.498Z,55.05
2022-12-01T04:28:07.789Z,55.32
2022-12-01T04:30:34.155Z,55.24
2022-12-01T04:33:00.737Z,54.83
2022-12-01T04:35:27.089Z,54.96
2022-12-01T04:37:53.513Z,55.26
2022-12-01T04:40:19.807Z,55.25
2022-12-01T04:42:46.146Z,55.19
2022-12-01T04:45:12.624Z,55.34
2022-12-01T04:47:38.968Z,55.31
2022-12-01T04:50:05.392Z,55.37
2022-12-01T04:52:35.273Z,55.04
2022-12-01T04:55:02.103Z,55.02
2022-12-01T04:57:28.435Z,54.88
2022-12-01T04:59:54.741Z,55.00
2022-12-01T05:02:21.092Z,54.66
2022-12-01T05:04:47.432Z,54.92
2022-12-01T05:07:13.854Z,55.15
2022-12-01T05:09:40.280Z,55.26
2022-12-01T05:12:06.725Z,55.29
2022-12-01T05:14:33.108Z,55.13
2022-12-01T05:16:59.432Z,55.42
2022-12-01T05:19:25.863Z,55.30
2022-12-01T05:21:52.220Z,55.34
2022-12-01T05:24:18.567Z,54.93
2022-12-01T05:26:44.931Z,55.01
2022-12-01T05:29:11.392Z,55.06
2022-12-01T05:31:37.937Z,55.08
2022-12-01T05:34:04.495Z,55.31
2022-12-01T05:36:30.754Z,55.31
2022-12-01T05:38:57.104Z,55.34
2022-12-01T05:41:23.428Z,55.22
2022-12-01T05:43:50.028Z,55.35
2022-12-01T05:46:16.481Z,55.42
2022-12-01T05:48:42.872Z,55.26
2022-12-01T05:51:09.186Z,55.42
2022-12-01T05:53:35.679Z,55.24
2022-12-01T05:56:02.035Z,55.39
2022-12-01T05:58:28.542Z,55.08
2022-12-01T06:00:55.110Z,55.48
2022-12-01T06:03:21.572Z,55.37
2022-12-01T06:05:47.950Z,55.63
2022-12-01T06:08:14.283Z,55.38
2022-12-01T06:10:40.565Z,55.32
2022-12-01T06:13:07.168Z,55.45
2022-12-01T06:15:33.517Z,55.41
2022-12-01T06:17:59.973Z,55.40
2022-12-01T06:20:26.532Z,55.29
2022-12-01T06:22:52.818Z,55.20
2022-12-01T06:25:19.260Z,55.42
2022-12-01T06:27:45.716Z,55.40
2022-12-01T06:30:12.008Z,55.34
2022-12-01T06:32:38.586Z,55.35
2022-12-01T06:35:04.905Z,55.60
2022-12-01T06:37:31.285Z,55.49
2022-12-01T06:39:57.682Z,55.18
2022-12-01T06:42:24.054Z,55.50
2022-12-01T06:44:50.438Z,55.32
2022-12-01T06:47:16.887Z,55.49
2022-12-01T06:49:43.303Z,55.35
2022-12-01T06:52:09.695Z,55.44
2022-12-01T06:54:36.172Z,55.47
2022-12-01T06:57:02.514Z,55.26
2022-12-01T06:59:28.930Z,55.17
2022-12-01T07:01:55.590Z,55.56
2022-12-01T07:04:22.019Z,55.52
2022-12-01T07:06:48.314Z,55.32
2022-12-01T07:09:14.646Z,55.24
2022-12-01T07:11:40.989Z,55.23
2022-12-01T07:14:07.352Z,55.61
2022-12-01T07:16:33.783Z,55.29
2022-12-01T07:19:00.276Z,55.28
2022-12-01T07:21:26.751Z,55.32
2022-12-01T07:23:53.122Z,55.50
2022-12-01T07:26:19.436Z,55.49
2022-12-01T07:28:45.807Z,55.41
2022-12-01T07:31:12.248Z,55.37
2022-12-01T07:33:38.740Z,55.32
2022-12-01T07:36:05.079Z,55.76
2022-12-01T07:38:31.492Z,55.94
2022-12-01T07:40:57.774Z,56.09
2022-12-01T07:43:24.110Z,56.24
2022-12-01T07:45:50.392Z,56.36
2022-12-01T07:48:16.655Z,56.54
2022-12-01T07:50:43.136Z,56.20
2022-12-01T07:53:09.463Z,56.54
2022-12-01T07:55:35.975Z,56.29
2022-12-01T07:58:02.527Z,56.48
2022-12-01T08:00:28.867Z,56.44
2022-12-01T08:02:55.307Z,56.30
2022-12-01T08:05:28.950Z,56.48
2022-12-01T08:07:55.401Z,56.46
2022-12-01T08:10:21.888Z,56.28
2022-12-01T08:12:48.424Z,56.52
2022-12-01T08:15:14.777Z,56.63
2022-12-01T08:17:41.307Z,56.54
2022-12-01T08:20:08.207Z,56.61
2022-12-01T08:22:34.550Z,56.53
2022-12-01T08:25:00.874Z,56.53
2022-12-01T08:27:27.202Z,56.66
2022-12-01T08:29:53.894Z,56.43
2022-12-01T08:32:20.543Z,56.42
2022-12-01T08:34:52.990Z,56.53
2022-12-01T08:37:19.777Z,56.58
2022-12-01T08:39:46.108Z,56.42
2022-12-01T08:42:12.433Z,56.35
2022-12-01T08:44:38.850Z,56.35
2022-12-01T08:47:05.170Z,56.59
2022-12-01T08:49:31.764Z,56.73
2022-12-01T08:51:58.083Z,56.60
2022-12-01T08:54:24.643Z,56.56
2022-12-01T08:56:50.986Z,56.70
2022-12-01T08:59:17.566Z,56.76
2022-12-01T09:01:43.971Z,56.64
2022-12-01T09:04:10.327Z,56.70
2022-12-01T09:06:36.711Z,56.75
2022-12-01T09:09:03.030Z,56.78
2022-12-01T09:11:29.430Z,56.73
2022-12-01T09:13:55.792Z,56.95
2022-12-01T09:16:22.258Z,56.68
2022-12-01T09:18:48.730Z,56.80
2022-12-01T09:21:15.217Z,56.81
2022-12-01T09:23:41.637Z,56.73
2022-12-01T09:26:13.236Z,56.78
2022-12-01T09:28:39.986Z,56.89
2022-12-01T09:31:06.464Z,56.76
2022-12-01T09:33:33.759Z,57.01
2022-12-01T09:36:00.084Z,57.00
2022-12-01T09:38:26.542Z,57.09
2022-12-01T09:40:53.057Z,57.13
2022-12-01T09:43:19.495Z,57.18
2022-12-01T09:45:45.849Z,57.27
2022-12-01T09:48:12.220Z,57.27
2022-12-01T09:50:38.541Z,57.28
2022-12-01T09:53:05.865Z,57.15
2022-12-01T09:55:32.153Z,57.34
2022-12-01T09:57:58.517Z,57.21
2022-12-01T10:00:24.904Z,57.53
2022-12-01T10:02:51.364Z,57.49
2022-12-01T10:05:17.627Z,57.42
2022-12-01T10:07:44.206Z,57.40
2022-12-01T10:10:10.642Z,57.35
2022-12-01T10:12:37.101Z,57.29
2022-12-01T10:15:03.450Z,57.69
2022-12-01T10:17:29.929Z,57.55
2022-12-01T10:19:56.383Z,57.74
2022-12-01T10:22:22.668Z,57.54
2022-12-01T10:24:49.271Z,57.54
2022-12-01T10:27:15.689Z,57.81
2022-12-01T10:29:47.232Z,57.97
2022-12-01T10:32:14.065Z,57.80
2022-12-01T10:34:40.622Z,58.14
2022-12-01T10:37:07.027Z,58.16
2022-12-01T10:39:33.413Z,57.88
2022-12-01T10:41:59.712Z,58.01
2022-12-01T10:44:25.997Z,58.12
2022-12-01T10:46:52.435Z,58.08
2022-12-01T10:49:19.035Z,57.82
2022-12-01T10:51:45.400Z,57.78
2022-12-01T10:54:11.780Z,58.08
2022-12-01T10:56:38.106Z,58.22
2022-12-01T10:59:04.469Z,58.11
2022-12-01T11:01:30.915Z,58.14
2022-12-01T11:03:57.563Z,58.09
2022-12-01T11:06:23.944Z,57.97
2022-12-01T11:08:50.295Z,58.09
2022-12-01T11:11:16.666Z,57.82
2022-12-01T11:13:42.942Z,58.00
2022-12-01T11:16:09.241Z,58.08
2022-12-01T11:18:35.826Z,58.03
2022-12-01T11:21:02.196Z,58.07
2022-12-01T11:23:28.875Z,57.71
2022-12-01T11:25:55.273Z,57.90
2022-12-01T11:28:21.604Z,58.05
2022-12-01T11:30:51.240Z,58.03
2022-12-01T11:33:21.607Z,58.13
2022-12-01T11:35:48.033Z,58.03
2022-12-01T11:38:29.173Z,57.94
2022-12-01T11:40:55.851Z,58.13
2022-12-01T11:43:22.316Z,58.11
2022-12-01T11:45:48.656Z,57.97
2022-12-01T11:48:14.987Z,58.21
2022-12-01T11:50:41.348Z,58.06
2022-12-01T11:53:07.715Z,58.07
2022-12-01T11:55:34.154Z,58.00
2022-12-01T11:58:01.645Z,58.17
2022-12-01T12:00:28.232Z,58.03
2022-12-01T12:02:54.591Z,58.10
2022-12-01T12:05:20.980Z,58.38
2022-12-01T12:07:47.321Z,58.21
2022-12-01T12:10:13.744Z,58.08
2022-12-01T12:12:40.153Z,58.00
2022-12-01T12:15:06.469Z,58.26
2022-12-01T12:17:32.860Z,58.00
2022-12-01T12:20:07.531Z,58.34
2022-12-01T12:22:34.839Z,58.16
2022-12-01T12:25:01.159Z,58.25
2022-12-01T12:27:27.715Z,58.07
2022-12-01T12:29:54.436Z,58.06
2022-12-01T12:32:21.037Z,57.98
2022-12-01T12:34:47.550Z,58.08
2022-12-01T12:37:13.948Z,57.66
2022-12-01T12:39:40.271Z,57.75
2022-12-01T12:42:07.338Z,57.92
2022-12-01T12:44:37.000Z,57.93
2022-12-01T12:47:04.038Z,57.96
2022-12-01T12:49:30.627Z,57.77
2022-12-01T12:51:57.097Z,57.80
2022-12-01T12:54:23.707Z,57.96
2022-12-01T12:56:50.140Z,57.79
2022-12-01T12:59:16.468Z,57.99
2022-12-01T13:01:42.871Z,57.93
2022-12-01T13:04:09.318Z,57.82
2022-12-01T13:06:35.634Z,57.55
2022-12-01T13:09:02.359Z,57.39
2022-12-01T13:11:28.664Z,57.13
2022-12-01T13:13:54.993Z,57.04
2022-12-01T13:16:21.368Z,56.85
2022-12-01T13:18:47.859Z,56.52
2022-12-01T13:21:14.291Z,56.58
2022-12-01T13:23:40.663Z,56.60
2022-12-01T13:26:07.088Z,56.21
2022-12-01T13:28:33.346Z,56.31
2022-12-01T13:30:59.749Z,56.15
2022-12-01T13:33:26.148Z,56.35
2022-12-01T13:36:13.737Z,56.21
2022-12-01T13:38:38.907Z,56.33
2022-12-01T13:41:05.682Z,56.16
2022-12-01T13:43:32.099Z,56.10
2022-12-01T13:45:58.508Z,55.97
2022-12-01T13:48:24.804Z,55.90
2022-12-01T13:50:51.247Z,56.12
2022-12-01T13:53:17.669Z,55.77
2022-12-01T13:55:43.964Z,55.83
2022-12-01T13:58:10.370Z,55.91
2022-12-01T14:00:36.884Z,55.87
2022-12-01T14:03:03.290Z,55.75
2022-12-01T14:05:29.748Z,55.67
2022-12-01T14:07:56.175Z,55.63
2022-12-01T14:10:22.561Z,55.60
2022-12-01T14:12:48.933Z,55.62
2022-12-01T14:15:15.406Z,55.72
2022-12-01T14:17:41.862Z,55.50
2022-12-01T14:20:08.400Z,55.82
2022-12-01T14:22:34.915Z,55.64
2022-12-01T14:25:01.586Z,55.66
2022-12-01T14:27:28.441Z,55.46
2022-12-01T14:29:54.786Z,55.36
2022-12-01T14:32:21.171Z,55.62
2022-12-01T14:34:47.807Z,55.40
2022-12-01T14:37:14.430Z,55.44
2022-12-01T14:39:40.921Z,55.43
2022-12-01T14:42:07.202Z,55.22
2022-12-01T14:44:33.651Z,55.42
2022-12-01T14:47:00.240Z,55.20
2022-12-01T14:49:26.619Z,55.35
2022-12-01T14:51:52.915Z,55.34
2022-12-01T14:54:19.276Z,54.98
2022-12-01T14:56:45.593Z,54.93
2022-12-01T14:59:11.898Z,55.27
2022-12-01T15:01:38.441Z,55.06
2022-12-01T15:04:04.859Z,55.07
2022-12-01T15:06:31.160Z,55.39
2022-12-01T15:09:25.011Z,55.35
2022-12-01T15:11:44.112Z,55.32
2022-12-01T15:14:11.750Z,55.41
2022-12-01T15:16:38.341Z,54.95
2022-12-01T15:19:04.857Z,55.14
2022-12-01T15:21:31.246Z,55.23
2022-12-01T15:23:57.593Z,54.99
2022-12-01T15:26:24.040Z,55.00
2022-12-01T15:28:50.362Z,54.96
2022-12-01T15:31:16.847Z,55.21
2022-12-01T15:33:43.347Z,54.81
2022-12-01T15:36:09.708Z,54.92
2022-12-01T15:38:36.079Z,55.00
2022-12-01T15:43:48.810Z,55.07
2022-12-01T15:46:15.238Z,54.76
2022-12-01T15:48:41.589Z,54.64
2022-12-01T15:51:08.512Z,55.11
2022-12-01T15:53:34.841Z,54.74
2022-12-01T15:56:01.185Z,54.95
2022-12-01T15:58:27.468Z,54.68
2022-12-01T16:00:53.884Z,54.85
2022-12-01T16:03:20.235Z,55.00
2022-12-01T16:05:46.572Z,54.93
2022-12-01T16:08:13.973Z,54.95
2022-12-01T16:10:40.638Z,54.95
2022-12-01T16:13:07.064Z,55.21
2022-12-01T16:15:33.368Z,54.79
2022-12-01T16:17:59.783Z,54.65
2022-12-01T16:20:26.371Z,54.64
2022-12-01T16:22:52.678Z,54.98
2022-12-01T16:25:19.023Z,54.59
2022-12-01T16:27:45.441Z,54.63
2022-12-01T16:30:11.776Z,54.88
2022-12-01T16:32:38.074Z,54.81
2022-12-01T16:35:04.380Z,54.81
2022-12-01T16:37:30.940Z,54.51
2022-12-01T16:39:57.287Z,54.72
2022-12-01T16:42:23.600Z,54.62
2022-12-01T16:44:50.443Z,54.48
2022-12-01T16:47:17.054Z,54.42
2022-12-01T16:49:43.457Z,54.71
2022-12-01T16:52:36.539Z,54.54
2022-12-01T16:54:56.088Z,54.77
2022-12-01T16:57:22.383Z,54.36
2022-12-01T16:59:48.713Z,54.54
2022-12-01T17:02:15.100Z,54.77
2022-12-01T17:04:41.523Z,54.61
2022-12-01T17:07:08.113Z,54.25
2022-12-01T17:09:34.503Z,54.31
2022-12-01T17:12:00.846Z,54.63
2022-12-01T17:14:27.181Z,54.40
2022-12-01T17:16:53.565Z,54.46
2022-12-01T17:19:22.936Z,54.69
2022-12-01T17:21:49.247Z,54.38
2022-12-01T17:24:19.012Z,54.47
2022-12-01T17:26:45.733Z,54.21
2022-12-01T17:29:12.589Z,54.59
2022-12-01T17:31:39.244Z,54.20
2022-12-01T17:34:05.603Z,54.30
2022-12-01T17:36:32.161Z,53.80
2022-12-01T17:39:00.642Z,53.81
2022-12-01T17:41:27.105Z,53.98
2022-12-01T17:43:53.482Z,53.88
2022-12-01T17:49:10.903Z,54.04
2022-12-01T17:51:37.410Z,54.24
2022-12-01T17:54:03.750Z,54.61
2022-12-01T17:56:30.278Z,54.87
2022-12-01T17:58:56.739Z,54.69
2022-12-01T18:01:28.609Z,54.68
2022-12-01T18:03:57.020Z,54.95
2022-12-01T18:06:23.485Z,54.99
2022-12-01T18:08:50.055Z,55.27
2022-12-01T18:11:16.487Z,55.03
2022-12-01T18:13:42.782Z,55.34
2022-12-01T18:16:09.361Z,55.20
2022-12-01T18:18:35.744Z,55.37
2022-12-01T18:21:02.264Z,55.36
2022-12-01T18:23:28.778Z,55.27
2022-12-01T18:25:55.283Z,55.58
2022-12-01T18:28:21.688Z,55.39
2022-12-01T18:30:48.128Z,55.73
2022-12-01T18:33:14.450Z,55.87
2022-12-01T18:35:40.824Z,55.92
2022-12-01T18:38:07.409Z,55.92
2022-12-01T18:40:38.980Z,55.94
2022-12-01T18:43:05.275Z,56.13
2022-12-01T18:45:31.644Z,55.94
2022-12-01T18:47:57.942Z,55.74
2022-12-01T18:50:24.297Z,56.11
2022-12-01T18:52:50.759Z,56.09
2022-12-01T18:55:17.094Z,55.89
2022-12-01T18:57:43.568Z,55.94
2022-12-01T19:00:09.934Z,56.41
2022-12-01T19:02:36.308Z,56.09
2022-12-01T19:05:02.688Z,56.21
2022-12-01T19:07:30.181Z,56.06
2022-12-01T19:09:56.751Z,56.09
2022-12-01T19:12:23.202Z,56.01
2022-12-01T19:14:49.823Z,55.89
2022-12-01T19:17:16.504Z,55.65
2022-12-01T19:19:42.975Z,55.69
2022-12-01T19:22:09.413Z,55.52
2022-12-01T19:24:35.700Z,55.37
2022-12-01T19:27:02.038Z,55.25
2022-12-01T19:29:28.357Z,55.37
2022-12-01T19:31:54.940Z,55.27
2022-12-01T19:34:21.300Z,55.54
2022-12-01T19:36:47.725Z,55.60
2022-12-01T19:39:14.138Z,55.39
2022-12-01T19:41:40.518Z,55.76
2022-12-01T19:44:07.086Z,55.42
2022-12-01T19:46:33.364Z,55.39
2022-12-01T19:49:00.264Z,55.48
2022-12-01T19:51:27.115Z,55.28
2022-12-01T19:53:53.397Z,55.46
2022-12-01T19:56:19.730Z,55.18
2022-12-01T19:58:46.066Z,55.36
2022-12-01T20:01:12.593Z,55.73
2022-12-01T20:03:38.955Z,55.41
2022-12-01T20:06:05.355Z,55.71
2022-12-01T20:08:35.516Z,55.74
2022-12-01T20:11:02.513Z,55.60
2022-12-01T20:13:28.897Z,55.77
2022-12-01T20:15:55.244Z,55.89
2022-12-01T20:21:06.108Z,55.42
2022-12-01T20:23:32.554Z,55.54
2022-12-01T20:25:58.958Z,55.60
2022-12-01T20:28:25.301Z,55.89
2022-12-01T20:30:51.727Z,55.35
2022-12-01T20:33:18.198Z,55.33
2022-12-01T20:35:44.466Z,55.40
2022-12-01T20:38:10.846Z,55.69
2022-12-01T20:40:37.521Z,55.46
2022-12-01T20:43:03.884Z,55.28
2022-12-01T20:45:30.261Z,55.39
2022-12-01T20:47:56.562Z,55.12
2022-12-01T20:50:23.034Z,55.02
2022-12-01T20:52:49.500Z,55.24
2022-12-01T20:55:15.984Z,55.04
2022-12-01T20:57:42.404Z,55.12
2022-12-01T21:00:08.765Z,55.04
2022-12-01T21:02:35.117Z,55.35
2022-12-01T21:05:01.764Z,55.43
2022-12-01T21:07:28.298Z,55.21
2022-12-01T21:09:54.652Z,55.31
2022-12-01T21:12:21.096Z,55.42
2022-12-01T21:14:47.881Z,55.09
2022-12-01T21:17:14.600Z,55.19
2022-12-01T21:19:40.927Z,55.41
2022-12-01T21:22:07.284Z,55.39
2022-12-01T21:24:36.816Z,55.24
2022-12-01T21:27:05.659Z,55.21
2022-12-01T21:29:32.083Z,55.56
2022-12-01T21:31:58.571Z,55.19
2022-12-01T21:34:24.868Z,55.32
2022-12-01T21:36:51.292Z,55.18
2022-12-01T21:39:17.808Z,55.30
2022-12-01T21:41:44.273Z,54.88
2022-12-01T21:44:10.616Z,55.04
2022-12-01T21:46:36.934Z,54.88
2022-12-01T21:49:03.549Z,55.17
2022-12-01T21:51:29.895Z,55.19
2022-12-01T21:53:56.334Z,55.25
2022-12-01T21:56:22.683Z,55.16
2022-12-01T21:58:49.054Z,55.17
2022-12-01T22:01:15.465Z,55.03
2022-12-01T22:03:41.961Z,55.01
2022-12-01T22:06:28.704Z,54.95
2022-12-01T22:08:54.977Z,55.09
2022-12-01T22:11:21.419Z,55.44
2022-12-01T22:13:47.924Z,55.52
2022-12-01T22:16:14.433Z,55.65
2022-12-01T22:18:40.892Z,55.49
2022-12-01T22:21:07.230Z,55.52
2022-12-01T22:23:33.799Z,55.74
2022-12-01T22:26:00.243Z,55.82
2022-12-01T22:28:26.489Z,55.81
2022-12-01T22:30:52.847Z,55.97
2022-12-01T22:33:19.251Z,55.90
2022-12-01T22:35:45.626Z,56.00
2022-12-01T22:38:12.032Z,55.94
2022-12-01T22:40:38.707Z,55.86
2022-12-01T22:43:08.480Z,55.71
2022-12-01T22:45:37.472Z,56.04
2022-12-01T22:48:03.743Z,55.92
2022-12-01T22:50:30.032Z,56.00
2022-12-01T22:52:56.470Z,55.69
2022-12-01T22:55:22.793Z,55.70
2022-12-01T22:57:49.126Z,56.03
2022-12-01T23:00:15.457Z,56.18
2022-12-01T23:02:41.815Z,56.02
2022-12-01T23:05:08.300Z,55.92
2022-12-01T23:07:34.816Z,56.51
2022-12-01T23:10:01.363Z,56.18
2022-12-01T23:12:28.701Z,56.21
2022-12-01T23:14:55.678Z,56.23
2022-12-01T23:17:22.082Z,55.84
2022-12-01T23:19:48.528Z,55.98
2022-12-01T23:22:14.887Z,56.23
2022-12-01T23:24:41.169Z,55.99
2022-12-01T23:27:07.868Z,55.97
2022-12-01T23:29:34.147Z,56.00
2022-12-01T23:32:00.555Z,56.10
2022-12-01T23:34:26.863Z,56.24
2022-12-01T23:36:53.128Z,56.19
2022-12-01T23:39:19.486Z,55.99
2022-12-01T23:41:45.833Z,55.82
2022-12-01T23:44:12.269Z,55.83
2022-12-01T23:46:39.240Z,55.91
2022-12-01T23:49:05.627Z,56.10
2022-12-01T23:51:31.991Z,55.98
2022-12-01T23:53:58.292Z,55.80
2022-12-01T23:56:24.844Z,55.85
2022-12-01T23:58:51.208Z,55.73
